sensor_id;sensor_type;location;lat;lon;timestamp;temperature;humidity
56308;DHT22;42217;50.422;7.210;2023-05-19T00:01:06;5.10;99.90
56308;DHT22;42217;50.422;7.210;2023-05-19T00:03:33;5.10;99.90
56308;DHT22;42217;50.422;7.210;2023-05-19T00:06:01;5.50;99.90
56308;DHT22;42217;50.422;7.210;2023-05-19T00:08:29;5.60;99.90
56308;DHT22;42217;50.422;7.210;2023-05-19T00:10:56;5.50;99.90
56308;DHT22;42217;50.422;7.210;2023-05-19T00:13:22;5.50;99.90
56308;DHT22;42217;50.422;7.210;2023-05-19T00:15:48;5.30;99.90
56308;DHT22;42217;50.422;7.210;2023-05-19T00:18:15;5.20;99.90
56308;DHT22;42217;50.422;7.210;2023-05-19T00:20:42;5.40;99.90
56308;DHT22;42217;50.422;7.210;2023-05-19T00:23:07;5.20;99.90
56308;DHT22;42217;50.422;7.210;2023-05-19T00:25:33;5.20;99.90
56308;DHT22;42217;50.422;7.210;2023-05-19T00:27:59;5.50;99.90
56308;DHT22;42217;50.422;7.210;2023-05-19T00:30:25;5.70;99.90
56308;DHT22;42217;50.422;7.210;2023-05-19T00:32:51;5.90;99.90
56308;DHT22;42217;50.422;7.210;2023-05-19T00:35:16;6.00;99.90
56308;DHT22;42217;50.422;7.210;2023-05-19T00:37:42;6.00;99.90
56308;DHT22;42217;50.422;7.210;2023-05-19T00:40:08;5.70;99.90
56308;DHT22;42217;50.422;7.210;2023-05-19T00:42:35;5.80;99.90
56308;DHT22;42217;50.422;7.210;2023-05-19T00:45:00;5.60;99.90
56308;DHT22;42217;50.422;7.210;2023-05-19T00:47:26;5.30;99.90
56308;DHT22;42217;50.422;7.210;2023-05-19T00:49:52;5.40;99.90
56308;DHT22;42217;50.422;7.210;2023-05-19T00:52:17;5.70;99.90
56308;DHT22;42217;50.422;7.210;2023-05-19T00:54:43;6.00;99.90
56308;DHT22;42217;50.422;7.210;2023-05-19T00:57:10;6.00;99.90
56308;DHT22;42217;50.422;7.210;2023-05-19T00:59:36;5.60;99.90
56308;DHT22;42217;50.422;7.210;2023-05-19T01:02:01;5.50;99.90
56308;DHT22;42217;50.422;7.210;2023-05-19T01:04:27;5.70;99.90
56308;DHT22;42217;50.422;7.210;2023-05-19T01:06:54;5.80;99.90
56308;DHT22;42217;50.422;7.210;2023-05-19T01:09:21;5.80;99.90
56308;DHT22;42217;50.422;7.210;2023-05-19T01:11:48;5.50;99.90
56308;DHT22;42217;50.422;7.210;2023-05-19T01:14:14;5.10;99.90
56308;DHT22;42217;50.422;7.210;2023-05-19T01:16:44;4.70;99.90
56308;DHT22;42217;50.422;7.210;2023-05-19T01:22:05;4.20;99.90
56308;DHT22;42217;50.422;7.210;2023-05-19T01:32:18;4.90;99.90
56308;DHT22;42217;50.422;7.210;2023-05-19T01:34:45;4.90;99.90
56308;DHT22;42217;50.422;7.210;2023-05-19T01:37:14;5.00;99.90
56308;DHT22;42217;50.422;7.210;2023-05-19T01:39:41;5.10;99.90
56308;DHT22;42217;50.422;7.210;2023-05-19T01:42:09;5.20;99.90
56308;DHT22;42217;50.422;7.210;2023-05-19T01:44:35;5.20;99.90
56308;DHT22;42217;50.422;7.210;2023-05-19T01:47:02;5.10;99.90
56308;DHT22;42217;50.422;7.210;2023-05-19T01:49:28;4.70;99.90
56308;DHT22;42217;50.422;7.210;2023-05-19T01:51:55;4.50;99.90
56308;DHT22;42217;50.422;7.210;2023-05-19T01:54:21;4.60;99.90
56308;DHT22;42217;50.422;7.210;2023-05-19T01:57:08;5.00;99.90
56308;DHT22;42217;50.422;7.210;2023-05-19T01:59:39;4.70;99.90
56308;DHT22;42217;50.422;7.210;2023-05-19T02:02:27;4.40;99.90
56308;DHT22;42217;50.422;7.210;2023-05-19T02:05:06;4.00;99.90
56308;DHT22;42217;50.422;7.210;2023-05-19T02:07:43;3.80;99.90
56308;DHT22;42217;50.422;7.210;2023-05-19T02:10:21;4.10;99.90
56308;DHT22;42217;50.422;7.210;2023-05-19T02:12:51;4.50;99.90
56308;DHT22;42217;50.422;7.210;2023-05-19T02:15:24;4.50;99.90
56308;DHT22;42217;50.422;7.210;2023-05-19T02:17:52;4.50;99.90
56308;DHT22;42217;50.422;7.210;2023-05-19T02:20:20;4.70;99.90
56308;DHT22;42217;50.422;7.210;2023-05-19T02:22:46;5.00;99.90
56308;DHT22;42217;50.422;7.210;2023-05-19T02:25:12;5.10;99.90
56308;DHT22;42217;50.422;7.210;2023-05-19T02:27:40;5.00;99.90
56308;DHT22;42217;50.422;7.210;2023-05-19T02:30:07;4.90;99.90
56308;DHT22;42217;50.422;7.210;2023-05-19T02:32:33;4.90;99.90
56308;DHT22;42217;50.422;7.210;2023-05-19T02:34:59;5.00;99.90
56308;DHT22;42217;50.422;7.210;2023-05-19T02:37:25;5.00;99.90
56308;DHT22;42217;50.422;7.210;2023-05-19T02:39:53;4.90;99.90
56308;DHT22;42217;50.422;7.210;2023-05-19T02:42:19;4.80;99.90
56308;DHT22;42217;50.422;7.210;2023-05-19T02:44:45;4.70;99.90
56308;DHT22;42217;50.422;7.210;2023-05-19T02:47:11;4.30;99.90
56308;DHT22;42217;50.422;7.210;2023-05-19T02:49:36;4.10;99.90
56308;DHT22;42217;50.422;7.210;2023-05-19T02:52:06;4.20;99.90
56308;DHT22;42217;50.422;7.210;2023-05-19T02:54:32;4.00;99.90
56308;DHT22;42217;50.422;7.210;2023-05-19T02:56:58;4.10;99.90
56308;DHT22;42217;50.422;7.210;2023-05-19T02:59:24;3.80;99.90
56308;DHT22;42217;50.422;7.210;2023-05-19T03:01:59;3.50;99.90
56308;DHT22;42217;50.422;7.210;2023-05-19T03:04:26;3.20;99.90
56308;DHT22;42217;50.422;7.210;2023-05-19T03:06:52;3.30;99.90
56308;DHT22;42217;50.422;7.210;2023-05-19T03:09:18;3.90;99.90
56308;DHT22;42217;50.422;7.210;2023-05-19T03:11:44;4.20;99.90
56308;DHT22;42217;50.422;7.210;2023-05-19T03:14:10;4.40;99.90
56308;DHT22;42217;50.422;7.210;2023-05-19T03:16:42;4.30;99.90
56308;DHT22;42217;50.422;7.210;2023-05-19T03:19:08;4.20;99.90
56308;DHT22;42217;50.422;7.210;2023-05-19T03:21:34;4.20;99.90
56308;DHT22;42217;50.422;7.210;2023-05-19T03:24:00;4.10;99.90
56308;DHT22;42217;50.422;7.210;2023-05-19T03:26:26;3.80;99.90
56308;DHT22;42217;50.422;7.210;2023-05-19T03:28:51;3.90;99.90
56308;DHT22;42217;50.422;7.210;2023-05-19T03:31:17;3.90;99.90
56308;DHT22;42217;50.422;7.210;2023-05-19T03:33:43;3.90;99.90
56308;DHT22;42217;50.422;7.210;2023-05-19T03:36:08;4.10;99.90
56308;DHT22;42217;50.422;7.210;2023-05-19T03:38:34;4.30;99.90
56308;DHT22;42217;50.422;7.210;2023-05-19T03:41:00;4.40;99.90
56308;DHT22;42217;50.422;7.210;2023-05-19T03:43:25;4.40;99.90
56308;DHT22;42217;50.422;7.210;2023-05-19T03:45:51;4.40;99.90
56308;DHT22;42217;50.422;7.210;2023-05-19T03:48:17;4.30;99.90
56308;DHT22;42217;50.422;7.210;2023-05-19T03:50:43;4.40;99.90
56308;DHT22;42217;50.422;7.210;2023-05-19T03:53:09;4.30;99.90
56308;DHT22;42217;50.422;7.210;2023-05-19T03:55:35;4.10;99.90
56308;DHT22;42217;50.422;7.210;2023-05-19T03:58:02;4.10;99.90
56308;DHT22;42217;50.422;7.210;2023-05-19T04:00:28;4.00;99.90
56308;DHT22;42217;50.422;7.210;2023-05-19T04:02:53;3.90;99.90
56308;DHT22;42217;50.422;7.210;2023-05-19T04:05:19;3.60;99.90
56308;DHT22;42217;50.422;7.210;2023-05-19T04:07:45;3.40;99.90
56308;DHT22;42217;50.422;7.210;2023-05-19T04:10:11;3.60;99.90
56308;DHT22;42217;50.422;7.210;2023-05-19T04:12:37;3.90;99.90
56308;DHT22;42217;50.422;7.210;2023-05-19T04:15:03;4.00;99.90
56308;DHT22;42217;50.422;7.210;2023-05-19T04:17:32;4.20;99.90
56308;DHT22;42217;50.422;7.210;2023-05-19T04:19:58;4.50;99.90
56308;DHT22;42217;50.422;7.210;2023-05-19T04:22:24;4.70;99.90
56308;DHT22;42217;50.422;7.210;2023-05-19T04:24:49;4.90;99.90
56308;DHT22;42217;50.422;7.210;2023-05-19T04:27:17;5.10;99.90
56308;DHT22;42217;50.422;7.210;2023-05-19T04:29:43;5.40;99.90
56308;DHT22;42217;50.422;7.210;2023-05-19T04:32:10;5.60;99.90
56308;DHT22;42217;50.422;7.210;2023-05-19T04:34:36;5.80;99.90
56308;DHT22;42217;50.422;7.210;2023-05-19T04:37:07;6.10;99.90
56308;DHT22;42217;50.422;7.210;2023-05-19T04:39:34;6.20;99.90
56308;DHT22;42217;50.422;7.210;2023-05-19T04:42:03;6.30;99.90
56308;DHT22;42217;50.422;7.210;2023-05-19T04:44:29;6.30;99.90
56308;DHT22;42217;50.422;7.210;2023-05-19T04:46:55;6.30;99.90
56308;DHT22;42217;50.422;7.210;2023-05-19T04:49:22;6.40;99.90
56308;DHT22;42217;50.422;7.210;2023-05-19T04:51:48;6.40;99.90
56308;DHT22;42217;50.422;7.210;2023-05-19T04:54:16;6.50;99.90
56308;DHT22;42217;50.422;7.210;2023-05-19T04:56:42;6.50;99.90
56308;DHT22;42217;50.422;7.210;2023-05-19T04:59:08;6.50;99.90
56308;DHT22;42217;50.422;7.210;2023-05-19T05:01:35;6.50;99.90
56308;DHT22;42217;50.422;7.210;2023-05-19T05:04:05;6.50;99.90
56308;DHT22;42217;50.422;7.210;2023-05-19T05:06:31;6.50;99.90
56308;DHT22;42217;50.422;7.210;2023-05-19T05:08:57;6.60;99.90
56308;DHT22;42217;50.422;7.210;2023-05-19T05:11:23;6.60;99.90
56308;DHT22;42217;50.422;7.210;2023-05-19T05:13:49;6.80;99.90
56308;DHT22;42217;50.422;7.210;2023-05-19T05:16:15;6.90;99.90
56308;DHT22;42217;50.422;7.210;2023-05-19T05:18:41;6.90;99.90
56308;DHT22;42217;50.422;7.210;2023-05-19T05:21:07;6.90;99.90
56308;DHT22;42217;50.422;7.210;2023-05-19T05:23:33;7.00;99.90
56308;DHT22;42217;50.422;7.210;2023-05-19T05:26:08;7.10;99.90
56308;DHT22;42217;50.422;7.210;2023-05-19T05:28:34;7.30;99.90
56308;DHT22;42217;50.422;7.210;2023-05-19T05:31:00;7.50;99.90
56308;DHT22;42217;50.422;7.210;2023-05-19T05:33:26;7.80;99.90
56308;DHT22;42217;50.422;7.210;2023-05-19T05:35:51;8.00;99.90
56308;DHT22;42217;50.422;7.210;2023-05-19T05:38:17;8.20;99.90
56308;DHT22;42217;50.422;7.210;2023-05-19T05:40:43;8.40;99.90
56308;DHT22;42217;50.422;7.210;2023-05-19T05:43:09;8.60;99.90
56308;DHT22;42217;50.422;7.210;2023-05-19T05:45:34;8.80;99.90
56308;DHT22;42217;50.422;7.210;2023-05-19T05:48:00;9.10;99.90
56308;DHT22;42217;50.422;7.210;2023-05-19T05:50:26;9.30;99.90
56308;DHT22;42217;50.422;7.210;2023-05-19T05:52:52;9.50;99.90
56308;DHT22;42217;50.422;7.210;2023-05-19T05:55:20;9.60;99.90
56308;DHT22;42217;50.422;7.210;2023-05-19T05:57:48;9.80;99.90
56308;DHT22;42217;50.422;7.210;2023-05-19T06:00:15;9.90;99.90
56308;DHT22;42217;50.422;7.210;2023-05-19T06:02:44;10.10;99.90
56308;DHT22;42217;50.422;7.210;2023-05-19T06:05:13;10.20;99.90
56308;DHT22;42217;50.422;7.210;2023-05-19T06:07:39;10.30;99.90
56308;DHT22;42217;50.422;7.210;2023-05-19T06:10:06;10.60;99.90
56308;DHT22;42217;50.422;7.210;2023-05-19T06:12:33;10.60;99.90
56308;DHT22;42217;50.422;7.210;2023-05-19T06:14:59;10.80;99.90
56308;DHT22;42217;50.422;7.210;2023-05-19T06:17:25;10.90;99.90
56308;DHT22;42217;50.422;7.210;2023-05-19T06:19:50;11.00;99.90
56308;DHT22;42217;50.422;7.210;2023-05-19T06:22:16;11.10;99.90
56308;DHT22;42217;50.422;7.210;2023-05-19T06:24:42;11.10;99.90
56308;DHT22;42217;50.422;7.210;2023-05-19T06:27:07;11.20;99.90
56308;DHT22;42217;50.422;7.210;2023-05-19T06:29:33;11.40;99.90
56308;DHT22;42217;50.422;7.210;2023-05-19T06:31:59;11.40;68.70
56308;DHT22;42217;50.422;7.210;2023-05-19T06:34:25;11.50;36.20
56308;DHT22;42217;50.422;7.210;2023-05-19T06:36:51;11.70;51.80
56308;DHT22;42217;50.422;7.210;2023-05-19T06:39:17;11.80;36.80
56308;DHT22;42217;50.422;7.210;2023-05-19T06:41:42;12.00;31.90
56308;DHT22;42217;50.422;7.210;2023-05-19T06:44:08;12.00;12.60
56308;DHT22;42217;50.422;7.210;2023-05-19T06:46:34;11.80;18.80
56308;DHT22;42217;50.422;7.210;2023-05-19T06:49:00;12.00;25.00
56308;DHT22;42217;50.422;7.210;2023-05-19T06:51:25;12.30;29.30
56308;DHT22;42217;50.422;7.210;2023-05-19T06:53:51;12.50;27.30
56308;DHT22;42217;50.422;7.210;2023-05-19T06:56:17;12.70;2.50
56308;DHT22;42217;50.422;7.210;2023-05-19T06:58:44;12.70;12.30
56308;DHT22;42217;50.422;7.210;2023-05-19T07:01:10;12.70;12.90
56308;DHT22;42217;50.422;7.210;2023-05-19T07:03:35;12.90;11.90
56308;DHT22;42217;50.422;7.210;2023-05-19T07:06:01;13.10;6.50
56308;DHT22;42217;50.422;7.210;2023-05-19T07:08:27;13.20;1.00
56308;DHT22;42217;50.422;7.210;2023-05-19T07:10:53;13.30;1.00
56308;DHT22;42217;50.422;7.210;2023-05-19T07:13:20;13.40;1.00
56308;DHT22;42217;50.422;7.210;2023-05-19T07:15:46;13.40;1.00
56308;DHT22;42217;50.422;7.210;2023-05-19T07:18:13;13.40;1.00
56308;DHT22;42217;50.422;7.210;2023-05-19T07:20:39;13.50;1.00
56308;DHT22;42217;50.422;7.210;2023-05-19T07:23:05;13.50;1.00
56308;DHT22;42217;50.422;7.210;2023-05-19T07:25:31;13.60;1.00
56308;DHT22;42217;50.422;7.210;2023-05-19T07:27:57;13.80;1.00
56308;DHT22;42217;50.422;7.210;2023-05-19T07:30:23;13.90;1.00
56308;DHT22;42217;50.422;7.210;2023-05-19T07:32:49;13.70;1.00
56308;DHT22;42217;50.422;7.210;2023-05-19T07:35:15;13.60;1.00
56308;DHT22;42217;50.422;7.210;2023-05-19T07:37:40;13.50;1.00
56308;DHT22;42217;50.422;7.210;2023-05-19T07:40:06;13.80;1.00
56308;DHT22;42217;50.422;7.210;2023-05-19T07:42:33;13.80;1.00
56308;DHT22;42217;50.422;7.210;2023-05-19T07:44:58;14.00;1.00
56308;DHT22;42217;50.422;7.210;2023-05-19T07:47:25;14.20;1.00
56308;DHT22;42217;50.422;7.210;2023-05-19T07:49:50;14.40;1.00
56308;DHT22;42217;50.422;7.210;2023-05-19T07:52:16;14.50;1.00
56308;DHT22;42217;50.422;7.210;2023-05-19T07:54:45;14.40;1.00
56308;DHT22;42217;50.422;7.210;2023-05-19T07:57:11;14.10;1.00
56308;DHT22;42217;50.422;7.210;2023-05-19T07:59:36;14.20;1.00
56308;DHT22;42217;50.422;7.210;2023-05-19T08:02:02;14.40;1.00
56308;DHT22;42217;50.422;7.210;2023-05-19T08:04:28;14.70;1.00
56308;DHT22;42217;50.422;7.210;2023-05-19T08:06:55;14.80;1.00
56308;DHT22;42217;50.422;7.210;2023-05-19T08:09:21;15.10;1.00
56308;DHT22;42217;50.422;7.210;2023-05-19T08:11:47;15.30;1.00
56308;DHT22;42217;50.422;7.210;2023-05-19T08:14:14;15.40;1.00
56308;DHT22;42217;50.422;7.210;2023-05-19T08:16:40;15.60;1.00
56308;DHT22;42217;50.422;7.210;2023-05-19T08:19:07;15.70;1.00
56308;DHT22;42217;50.422;7.210;2023-05-19T08:21:33;15.90;1.00
56308;DHT22;42217;50.422;7.210;2023-05-19T08:24:00;15.80;1.00
56308;DHT22;42217;50.422;7.210;2023-05-19T08:26:26;15.90;99.90
56308;DHT22;42217;50.422;7.210;2023-05-19T08:28:52;15.80;99.90
56308;DHT22;42217;50.422;7.210;2023-05-19T08:31:18;15.70;99.90
56308;DHT22;42217;50.422;7.210;2023-05-19T08:33:44;15.70;99.90
56308;DHT22;42217;50.422;7.210;2023-05-19T08:36:10;15.70;1.00
56308;DHT22;42217;50.422;7.210;2023-05-19T08:38:36;15.60;1.00
56308;DHT22;42217;50.422;7.210;2023-05-19T08:41:01;15.50;99.90
56308;DHT22;42217;50.422;7.210;2023-05-19T08:43:27;15.70;99.90
56308;DHT22;42217;50.422;7.210;2023-05-19T08:45:54;15.70;1.00
56308;DHT22;42217;50.422;7.210;2023-05-19T08:48:21;16.00;99.90
56308;DHT22;42217;50.422;7.210;2023-05-19T08:53:36;16.10;99.90
56308;DHT22;42217;50.422;7.210;2023-05-19T08:59:01;16.30;99.90
56308;DHT22;42217;50.422;7.210;2023-05-19T09:01:27;16.30;99.90
56308;DHT22;42217;50.422;7.210;2023-05-19T09:03:54;16.30;99.90
56308;DHT22;42217;50.422;7.210;2023-05-19T09:06:20;16.20;99.90
56308;DHT22;42217;50.422;7.210;2023-05-19T09:08:45;16.30;99.90
56308;DHT22;42217;50.422;7.210;2023-05-19T09:11:12;16.60;99.90
56308;DHT22;42217;50.422;7.210;2023-05-19T09:13:38;16.70;1.00
56308;DHT22;42217;50.422;7.210;2023-05-19T09:16:04;16.80;54.10
56308;DHT22;42217;50.422;7.210;2023-05-19T09:18:30;17.10;1.00
56308;DHT22;42217;50.422;7.210;2023-05-19T09:20:58;17.00;99.90
56308;DHT22;42217;50.422;7.210;2023-05-19T09:23:30;16.90;1.00
56308;DHT22;42217;50.422;7.210;2023-05-19T09:26:03;17.00;1.00
56308;DHT22;42217;50.422;7.210;2023-05-19T09:28:32;17.10;99.90
56308;DHT22;42217;50.422;7.210;2023-05-19T09:30:59;17.10;99.90
56308;DHT22;42217;50.422;7.210;2023-05-19T09:33:26;17.10;99.90
56308;DHT22;42217;50.422;7.210;2023-05-19T09:35:53;17.10;99.90
56308;DHT22;42217;50.422;7.210;2023-05-19T09:38:22;17.20;99.90
56308;DHT22;42217;50.422;7.210;2023-05-19T09:40:48;17.60;99.90
56308;DHT22;42217;50.422;7.210;2023-05-19T09:43:15;17.80;99.90
56308;DHT22;42217;50.422;7.210;2023-05-19T09:45:41;18.00;99.90
56308;DHT22;42217;50.422;7.210;2023-05-19T09:48:06;18.20;79.10
56308;DHT22;42217;50.422;7.210;2023-05-19T09:50:32;18.30;99.70
56308;DHT22;42217;50.422;7.210;2023-05-19T09:52:58;18.50;98.90
56308;DHT22;42217;50.422;7.210;2023-05-19T09:55:27;18.60;98.60
56308;DHT22;42217;50.422;7.210;2023-05-19T09:57:56;18.50;98.30
56308;DHT22;42217;50.422;7.210;2023-05-19T10:00:22;18.50;97.90
56308;DHT22;42217;50.422;7.210;2023-05-19T10:02:48;18.80;98.50
56308;DHT22;42217;50.422;7.210;2023-05-19T10:05:18;18.20;99.80
56308;DHT22;42217;50.422;7.210;2023-05-19T10:07:52;17.60;99.90
56308;DHT22;42217;50.422;7.210;2023-05-19T10:10:20;17.40;99.90
56308;DHT22;42217;50.422;7.210;2023-05-19T10:12:47;17.20;99.90
56308;DHT22;42217;50.422;7.210;2023-05-19T10:15:14;17.30;99.90
56308;DHT22;42217;50.422;7.210;2023-05-19T10:17:41;17.50;99.90
56308;DHT22;42217;50.422;7.210;2023-05-19T10:20:12;17.60;99.90
56308;DHT22;42217;50.422;7.210;2023-05-19T10:22:39;17.70;99.70
56308;DHT22;42217;50.422;7.210;2023-05-19T10:25:06;18.00;99.80
56308;DHT22;42217;50.422;7.210;2023-05-19T10:27:35;17.80;99.90
56308;DHT22;42217;50.422;7.210;2023-05-19T10:30:16;18.00;99.10
56308;DHT22;42217;50.422;7.210;2023-05-19T10:32:45;18.00;99.70
56308;DHT22;42217;50.422;7.210;2023-05-19T10:35:23;17.80;99.80
56308;DHT22;42217;50.422;7.210;2023-05-19T10:40:40;17.20;99.90
56308;DHT22;42217;50.422;7.210;2023-05-19T10:46:05;17.50;99.40
56308;DHT22;42217;50.422;7.210;2023-05-19T10:48:34;17.20;99.40
56308;DHT22;42217;50.422;7.210;2023-05-19T10:51:03;17.10;99.60
56308;DHT22;42217;50.422;7.210;2023-05-19T10:53:32;17.30;99.90
56308;DHT22;42217;50.422;7.210;2023-05-19T10:56:01;17.60;99.20
56308;DHT22;42217;50.422;7.210;2023-05-19T11:01:07;18.20;98.00
56308;DHT22;42217;50.422;7.210;2023-05-19T11:03:48;18.70;97.40
56308;DHT22;42217;50.422;7.210;2023-05-19T11:08:46;19.90;95.00
56308;DHT22;42217;50.422;7.210;2023-05-19T11:11:15;19.60;95.00
56308;DHT22;42217;50.422;7.210;2023-05-19T11:13:54;19.50;96.10
56308;DHT22;42217;50.422;7.210;2023-05-19T11:16:33;19.50;97.20
56308;DHT22;42217;50.422;7.210;2023-05-19T11:18:59;18.60;97.50
56308;DHT22;42217;50.422;7.210;2023-05-19T11:21:49;18.40;97.70
56308;DHT22;42217;50.422;7.210;2023-05-19T11:29:53;18.40;97.60
56308;DHT22;42217;50.422;7.210;2023-05-19T11:32:21;18.40;97.00
56308;DHT22;42217;50.422;7.210;2023-05-19T11:34:48;18.10;98.20
56308;DHT22;42217;50.422;7.210;2023-05-19T11:37:14;17.70;96.40
56308;DHT22;42217;50.422;7.210;2023-05-19T11:39:40;17.80;97.00
56308;DHT22;42217;50.422;7.210;2023-05-19T11:42:09;18.10;98.70
56308;DHT22;42217;50.422;7.210;2023-05-19T11:44:36;18.60;97.20
56308;DHT22;42217;50.422;7.210;2023-05-19T11:47:06;18.70;96.80
56308;DHT22;42217;50.422;7.210;2023-05-19T11:49:32;19.00;95.90
56308;DHT22;42217;50.422;7.210;2023-05-19T11:52:02;19.10;94.90
56308;DHT22;42217;50.422;7.210;2023-05-19T11:54:32;19.30;94.00
56308;DHT22;42217;50.422;7.210;2023-05-19T11:57:02;19.40;94.90
56308;DHT22;42217;50.422;7.210;2023-05-19T11:59:31;19.50;94.20
56308;DHT22;42217;50.422;7.210;2023-05-19T12:02:00;19.70;92.90
56308;DHT22;42217;50.422;7.210;2023-05-19T12:04:27;19.80;90.40
56308;DHT22;42217;50.422;7.210;2023-05-19T12:06:53;19.30;93.30
56308;DHT22;42217;50.422;7.210;2023-05-19T12:09:21;18.50;93.30
56308;DHT22;42217;50.422;7.210;2023-05-19T12:11:49;18.50;93.80
56308;DHT22;42217;50.422;7.210;2023-05-19T12:14:15;18.50;92.80
56308;DHT22;42217;50.422;7.210;2023-05-19T12:16:41;18.40;93.50
56308;DHT22;42217;50.422;7.210;2023-05-19T12:19:07;18.20;95.70
56308;DHT22;42217;50.422;7.210;2023-05-19T12:21:34;18.10;94.40
56308;DHT22;42217;50.422;7.210;2023-05-19T12:24:00;18.10;94.50
56308;DHT22;42217;50.422;7.210;2023-05-19T12:26:26;18.50;95.70
56308;DHT22;42217;50.422;7.210;2023-05-19T12:28:52;19.20;93.80
56308;DHT22;42217;50.422;7.210;2023-05-19T12:31:18;19.90;93.40
56308;DHT22;42217;50.422;7.210;2023-05-19T12:33:48;20.40;90.80
56308;DHT22;42217;50.422;7.210;2023-05-19T12:36:17;20.90;92.30
56308;DHT22;42217;50.422;7.210;2023-05-19T12:38:43;20.70;90.50
56308;DHT22;42217;50.422;7.210;2023-05-19T12:41:12;19.70;91.90
56308;DHT22;42217;50.422;7.210;2023-05-19T12:43:39;19.40;92.90
56308;DHT22;42217;50.422;7.210;2023-05-19T12:46:09;19.70;91.00
56308;DHT22;42217;50.422;7.210;2023-05-19T12:48:39;20.20;91.00
56308;DHT22;42217;50.422;7.210;2023-05-19T12:51:06;20.50;89.30
56308;DHT22;42217;50.422;7.210;2023-05-19T12:53:32;20.30;86.60
56308;DHT22;42217;50.422;7.210;2023-05-19T12:55:58;20.20;90.40
56308;DHT22;42217;50.422;7.210;2023-05-19T12:58:23;20.90;90.70
56308;DHT22;42217;50.422;7.210;2023-05-19T13:00:50;20.70;85.60
56308;DHT22;42217;50.422;7.210;2023-05-19T13:03:20;21.10;86.40
56308;DHT22;42217;50.422;7.210;2023-05-19T13:05:48;22.00;79.70
56308;DHT22;42217;50.422;7.210;2023-05-19T13:08:16;23.30;78.10
56308;DHT22;42217;50.422;7.210;2023-05-19T13:10:44;24.50;72.40
56308;DHT22;42217;50.422;7.210;2023-05-19T13:13:10;24.40;68.30
56308;DHT22;42217;50.422;7.210;2023-05-19T13:15:39;24.20;68.10
56308;DHT22;42217;50.422;7.210;2023-05-19T13:18:07;23.60;70.50
56308;DHT22;42217;50.422;7.210;2023-05-19T13:20:34;23.80;72.30
56308;DHT22;42217;50.422;7.210;2023-05-19T13:23:00;25.40;66.60
56308;DHT22;42217;50.422;7.210;2023-05-19T13:25:26;26.70;62.10
56308;DHT22;42217;50.422;7.210;2023-05-19T13:27:52;26.10;62.00
56308;DHT22;42217;50.422;7.210;2023-05-19T13:30:19;24.80;63.70
56308;DHT22;42217;50.422;7.210;2023-05-19T13:32:45;24.60;62.10
56308;DHT22;42217;50.422;7.210;2023-05-19T13:35:12;24.90;61.30
56308;DHT22;42217;50.422;7.210;2023-05-19T13:37:38;25.20;63.00
56308;DHT22;42217;50.422;7.210;2023-05-19T13:40:07;25.60;58.60
56308;DHT22;42217;50.422;7.210;2023-05-19T13:42:33;25.60;60.90
56308;DHT22;42217;50.422;7.210;2023-05-19T13:48:21;26.00;60.80
56308;DHT22;42217;50.422;7.210;2023-05-19T13:50:46;25.70;58.90
56308;DHT22;42217;50.422;7.210;2023-05-19T13:53:12;26.00;59.70
56308;DHT22;42217;50.422;7.210;2023-05-19T13:55:38;26.40;58.40
56308;DHT22;42217;50.422;7.210;2023-05-19T13:58:03;26.70;57.60
56308;DHT22;42217;50.422;7.210;2023-05-19T14:00:30;26.80;58.00
56308;DHT22;42217;50.422;7.210;2023-05-19T14:02:56;26.50;58.20
56308;DHT22;42217;50.422;7.210;2023-05-19T14:05:22;26.50;58.90
56308;DHT22;42217;50.422;7.210;2023-05-19T14:07:47;26.30;59.10
56308;DHT22;42217;50.422;7.210;2023-05-19T14:10:13;26.10;56.20
56308;DHT22;42217;50.422;7.210;2023-05-19T14:12:38;25.90;57.10
56308;DHT22;42217;50.422;7.210;2023-05-19T14:15:05;26.20;56.70
56308;DHT22;42217;50.422;7.210;2023-05-19T14:17:30;27.20;55.60
56308;DHT22;42217;50.422;7.210;2023-05-19T14:19:58;27.80;54.40
56308;DHT22;42217;50.422;7.210;2023-05-19T14:22:24;26.30;56.00
56308;DHT22;42217;50.422;7.210;2023-05-19T14:24:50;24.20;58.10
56308;DHT22;42217;50.422;7.210;2023-05-19T14:27:15;22.70;57.30
56308;DHT22;42217;50.422;7.210;2023-05-19T14:29:41;21.70;60.40
56308;DHT22;42217;50.422;7.210;2023-05-19T14:32:07;21.10;60.40
56308;DHT22;42217;50.422;7.210;2023-05-19T14:34:32;22.40;60.40
56308;DHT22;42217;50.422;7.210;2023-05-19T14:37:00;23.30;59.40
56308;DHT22;42217;50.422;7.210;2023-05-19T14:39:26;24.40;58.30
56308;DHT22;42217;50.422;7.210;2023-05-19T14:41:51;24.10;58.50
56308;DHT22;42217;50.422;7.210;2023-05-19T14:44:17;23.60;59.10
56308;DHT22;42217;50.422;7.210;2023-05-19T14:46:43;24.30;58.20
56308;DHT22;42217;50.422;7.210;2023-05-19T14:49:08;24.30;60.00
56308;DHT22;42217;50.422;7.210;2023-05-19T14:51:34;23.40;59.80
56308;DHT22;42217;50.422;7.210;2023-05-19T14:54:00;22.20;62.10
56308;DHT22;42217;50.422;7.210;2023-05-19T14:56:26;21.50;62.00
56308;DHT22;42217;50.422;7.210;2023-05-19T14:58:52;21.30;63.80
56308;DHT22;42217;50.422;7.210;2023-05-19T15:01:18;22.20;63.20
56308;DHT22;42217;50.422;7.210;2023-05-19T15:03:43;24.70;60.10
56308;DHT22;42217;50.422;7.210;2023-05-19T15:06:09;25.60;57.80
56308;DHT22;42217;50.422;7.210;2023-05-19T15:08:35;25.90;56.30
56308;DHT22;42217;50.422;7.210;2023-05-19T15:11:02;25.30;58.00
56308;DHT22;42217;50.422;7.210;2023-05-19T15:13:28;23.70;58.50
56308;DHT22;42217;50.422;7.210;2023-05-19T15:15:54;22.40;62.50
56308;DHT22;42217;50.422;7.210;2023-05-19T15:18:20;22.40;62.50
56308;DHT22;42217;50.422;7.210;2023-05-19T15:20:46;21.80;61.90
56308;DHT22;42217;50.422;7.210;2023-05-19T15:23:12;21.50;62.80
56308;DHT22;42217;50.422;7.210;2023-05-19T15:25:38;22.20;63.40
56308;DHT22;42217;50.422;7.210;2023-05-19T15:28:04;22.80;62.10
56308;DHT22;42217;50.422;7.210;2023-05-19T15:30:29;23.50;59.30
56308;DHT22;42217;50.422;7.210;2023-05-19T15:32:55;24.60;58.50
56308;DHT22;42217;50.422;7.210;2023-05-19T15:35:21;24.20;58.50
56308;DHT22;42217;50.422;7.210;2023-05-19T15:37:47;23.10;59.30
56308;DHT22;42217;50.422;7.210;2023-05-19T15:40:13;22.90;59.80
56308;DHT22;42217;50.422;7.210;2023-05-19T15:42:38;22.90;60.30
56308;DHT22;42217;50.422;7.210;2023-05-19T15:45:05;23.80;60.50
56308;DHT22;42217;50.422;7.210;2023-05-19T15:47:32;24.20;59.00
56308;DHT22;42217;50.422;7.210;2023-05-19T15:49:57;24.40;59.30
56308;DHT22;42217;50.422;7.210;2023-05-19T15:52:23;24.40;58.70
56308;DHT22;42217;50.422;7.210;2023-05-19T15:54:49;24.40;58.70
56308;DHT22;42217;50.422;7.210;2023-05-19T15:57:14;24.50;59.30
56308;DHT22;42217;50.422;7.210;2023-05-19T15:59:40;25.90;58.80
56308;DHT22;42217;50.422;7.210;2023-05-19T16:02:06;26.80;56.80
56308;DHT22;42217;50.422;7.210;2023-05-19T16:04:32;27.40;57.20
56308;DHT22;42217;50.422;7.210;2023-05-19T16:06:58;29.00;55.30
56308;DHT22;42217;50.422;7.210;2023-05-19T16:09:23;27.70;53.20
56308;DHT22;42217;50.422;7.210;2023-05-19T16:11:49;24.70;55.90